Coldwater, Canada
Current Conditions -  °F | °C
As of 9:37 AM on Monday 20 Oct 2014 (Local Time) from CYQA Reporting Station
Light Rain Light Rain  
Wind Chill: 38°   Ceiling: 2000
Heat Index: 41°   Visibility: 7mi
Dew Point: 41°   Wind: 5mph
Humidity: 100%   Direction: 120°ESE
Pressure: 29.85"   Gusts: NA
Location:  44.71°N, 79.64°W
Report Text: CYQA 201337Z AUTO 12004KT 7SM -RA BKN020 BKN034 OVC042 05/05 A2985 RMK PCPN 0.8MM PAST HR SLP119
Loading
Personal Weather Stations






























Interactive Weather Map
Tropical Storm Tracking
New forecast layout! Learn more

10-Day Weather Forecast

Advertisements
Track Severe Weather on mobile